sensor_id;sensor_type;location;lat;lon;timestamp;pressure;altitude;pressure_sealevel;temperature;humidity
84051;BME280;74137;50.136;19.040;2024-02-28T00:01:08;98774.52;;;9.90;72.13
84051;BME280;74137;50.136;19.040;2024-02-28T00:04:01;98773.52;;;9.86;72.09
84051;BME280;74137;50.136;19.040;2024-02-28T00:07:07;98772.20;;;9.84;72.38
84051;BME280;74137;50.136;19.040;2024-02-28T00:11:25;98775.19;;;9.84;72.56
84051;BME280;74137;50.136;19.040;2024-02-28T00:14:27;98774.54;;;9.74;72.42
84051;BME280;74137;50.136;19.040;2024-02-28T00:17:05;98770.19;;;9.70;72.44
84051;BME280;74137;50.136;19.040;2024-02-28T00:19:43;98772.20;;;9.68;72.65
84051;BME280;74137;50.136;19.040;2024-02-28T00:22:14;98780.29;;;9.68;72.53
84051;BME280;74137;50.136;19.040;2024-02-28T00:24:45;98773.64;;;9.64;72.45
84051;BME280;74137;50.136;19.040;2024-02-28T00:27:16;98772.92;;;9.61;72.74
84051;BME280;74137;50.136;19.040;2024-02-28T00:29:49;98772.52;;;9.62;72.99
84051;BME280;74137;50.136;19.040;2024-02-28T00:32:21;98775.14;;;9.66;73.13
84051;BME280;74137;50.136;19.040;2024-02-28T00:35:31;98779.27;;;9.67;73.04
84051;BME280;74137;50.136;19.040;2024-02-28T00:38:07;98779.45;;;9.67;72.98
84051;BME280;74137;50.136;19.040;2024-02-28T00:41:13;98779.99;;;9.66;72.88
84051;BME280;74137;50.136;19.040;2024-02-28T00:43:49;98775.63;;;9.63;72.71
84051;BME280;74137;50.136;19.040;2024-02-28T00:46:27;98769.66;;;9.57;72.73
84051;BME280;74137;50.136;19.040;2024-02-28T00:48:56;98773.00;;;9.53;72.78
84051;BME280;74137;50.136;19.040;2024-02-28T00:51:24;98770.39;;;9.49;72.91
84051;BME280;74137;50.136;19.040;2024-02-28T00:53:53;98770.20;;;9.47;72.78
84051;BME280;74137;50.136;19.040;2024-02-28T00:56:21;98767.41;;;9.43;72.70
84051;BME280;74137;50.136;19.040;2024-02-28T01:02:29;98767.96;;;9.36;72.96
84051;BME280;74137;50.136;19.040;2024-02-28T01:05:28;98764.09;;;9.33;72.81
84051;BME280;74137;50.136;19.040;2024-02-28T01:08:06;98766.27;;;9.31;72.80
84051;BME280;74137;50.136;19.040;2024-02-28T01:10:35;98758.75;;;9.24;72.52
84051;BME280;74137;50.136;19.040;2024-02-28T01:13:05;98763.36;;;9.23;72.63
84051;BME280;74137;50.136;19.040;2024-02-28T01:15:34;98764.30;;;9.22;72.54
84051;BME280;74137;50.136;19.040;2024-02-28T01:18:14;98758.79;;;9.21;72.57
84051;BME280;74137;50.136;19.040;2024-02-28T01:20:42;98761.30;;;9.19;72.52
84051;BME280;74137;50.136;19.040;2024-02-28T01:23:11;98755.92;;;9.19;72.57
84051;BME280;74137;50.136;19.040;2024-02-28T01:25:39;98754.12;;;9.16;72.60
84051;BME280;74137;50.136;19.040;2024-02-28T01:28:07;98753.65;;;9.15;72.56
84051;BME280;74137;50.136;19.040;2024-02-28T01:30:35;98756.48;;;9.14;72.14
84051;BME280;74137;50.136;19.040;2024-02-28T01:33:06;98756.57;;;9.13;72.32
84051;BME280;74137;50.136;19.040;2024-02-28T01:35:34;98762.45;;;9.11;72.36
84051;BME280;74137;50.136;19.040;2024-02-28T01:38:03;98762.53;;;9.09;72.47
84051;BME280;74137;50.136;19.040;2024-02-28T01:40:31;98767.49;;;9.08;72.26
84051;BME280;74137;50.136;19.040;2024-02-28T01:43:04;98765.63;;;9.07;72.45
84051;BME280;74137;50.136;19.040;2024-02-28T01:45:32;98764.65;;;9.05;72.43
84051;BME280;74137;50.136;19.040;2024-02-28T01:48:00;98768.05;;;9.04;72.45
84051;BME280;74137;50.136;19.040;2024-02-28T01:50:29;98767.13;;;9.02;72.51
84051;BME280;74137;50.136;19.040;2024-02-28T01:52:59;98763.99;;;8.97;72.55
84051;BME280;74137;50.136;19.040;2024-02-28T01:55:28;98762.30;;;8.93;72.66
84051;BME280;74137;50.136;19.040;2024-02-28T01:57:56;98761.55;;;8.87;72.71
84051;BME280;74137;50.136;19.040;2024-02-28T02:00:27;98764.88;;;8.80;73.04
84051;BME280;74137;50.136;19.040;2024-02-28T02:02:56;98763.16;;;8.76;72.93
84051;BME280;74137;50.136;19.040;2024-02-28T02:05:24;98759.35;;;8.71;73.16
84051;BME280;74137;50.136;19.040;2024-02-28T02:07:54;98761.24;;;8.69;73.11
84051;BME280;74137;50.136;19.040;2024-02-28T02:10:23;98757.15;;;8.67;73.16
84051;BME280;74137;50.136;19.040;2024-02-28T02:12:52;98755.40;;;8.67;73.34
84051;BME280;74137;50.136;19.040;2024-02-28T02:15:20;98755.14;;;8.69;73.41
84051;BME280;74137;50.136;19.040;2024-02-28T02:17:48;98756.45;;;8.70;73.67
84051;BME280;74137;50.136;19.040;2024-02-28T02:20:18;98756.86;;;8.69;73.72
84051;BME280;74137;50.136;19.040;2024-02-28T02:22:48;98755.63;;;8.69;73.57
84051;BME280;74137;50.136;19.040;2024-02-28T02:25:17;98756.80;;;8.70;73.73
84051;BME280;74137;50.136;19.040;2024-02-28T02:27:45;98757.74;;;8.72;74.04
84051;BME280;74137;50.136;19.040;2024-02-28T02:30:14;98757.33;;;8.73;74.03
84051;BME280;74137;50.136;19.040;2024-02-28T02:32:43;98756.90;;;8.72;73.94
84051;BME280;74137;50.136;19.040;2024-02-28T02:35:11;98755.00;;;8.71;73.94
84051;BME280;74137;50.136;19.040;2024-02-28T02:37:43;98756.31;;;8.73;74.26
84051;BME280;74137;50.136;19.040;2024-02-28T02:40:14;98756.31;;;8.73;74.07
84051;BME280;74137;50.136;19.040;2024-02-28T02:42:43;98754.77;;;8.73;74.36
84051;BME280;74137;50.136;19.040;2024-02-28T02:45:12;98754.41;;;8.73;74.35
84051;BME280;74137;50.136;19.040;2024-02-28T02:47:40;98753.02;;;8.72;74.33
84051;BME280;74137;50.136;19.040;2024-02-28T02:50:09;98755.84;;;8.72;74.27
84051;BME280;74137;50.136;19.040;2024-02-28T02:52:38;98755.61;;;8.70;73.98
84051;BME280;74137;50.136;19.040;2024-02-28T02:55:07;98757.95;;;8.68;74.03
84051;BME280;74137;50.136;19.040;2024-02-28T02:57:35;98758.84;;;8.68;73.74
84051;BME280;74137;50.136;19.040;2024-02-28T03:00:04;98760.42;;;8.68;73.69
84051;BME280;74137;50.136;19.040;2024-02-28T03:02:36;98763.70;;;8.69;73.76
84051;BME280;74137;50.136;19.040;2024-02-28T03:05:08;98763.02;;;8.68;73.90
84051;BME280;74137;50.136;19.040;2024-02-28T03:07:37;98765.49;;;8.68;73.79
84051;BME280;74137;50.136;19.040;2024-02-28T03:10:05;98766.02;;;8.68;74.04
84051;BME280;74137;50.136;19.040;2024-02-28T03:12:34;98766.39;;;8.68;74.11
84051;BME280;74137;50.136;19.040;2024-02-28T03:15:03;98773.05;;;8.67;74.00
84051;BME280;74137;50.136;19.040;2024-02-28T03:17:32;98767.81;;;8.68;74.17
84051;BME280;74137;50.136;19.040;2024-02-28T03:20:00;98774.14;;;8.67;74.09
84051;BME280;74137;50.136;19.040;2024-02-28T03:22:29;98775.43;;;8.65;73.95
84051;BME280;74137;50.136;19.040;2024-02-28T03:24:57;98771.80;;;8.64;74.01
84051;BME280;74137;50.136;19.040;2024-02-28T03:27:28;98771.74;;;8.62;73.93
84051;BME280;74137;50.136;19.040;2024-02-28T03:29:56;98774.54;;;8.58;74.06
84051;BME280;74137;50.136;19.040;2024-02-28T03:32:24;98776.00;;;8.57;74.19
84051;BME280;74137;50.136;19.040;2024-02-28T03:34:53;98776.04;;;8.56;74.57
84051;BME280;74137;50.136;19.040;2024-02-28T03:37:21;98778.63;;;8.57;74.60
84051;BME280;74137;50.136;19.040;2024-02-28T03:39:49;98778.05;;;8.58;74.56
84051;BME280;74137;50.136;19.040;2024-02-28T03:42:18;98779.90;;;8.59;74.41
84051;BME280;74137;50.136;19.040;2024-02-28T03:44:47;98781.48;;;8.59;74.67
84051;BME280;74137;50.136;19.040;2024-02-28T03:47:16;98782.76;;;8.58;74.46
84051;BME280;74137;50.136;19.040;2024-02-28T03:49:45;98782.63;;;8.57;74.83
84051;BME280;74137;50.136;19.040;2024-02-28T03:52:13;98786.45;;;8.58;74.85
84051;BME280;74137;50.136;19.040;2024-02-28T03:54:46;98780.88;;;8.54;74.63
84051;BME280;74137;50.136;19.040;2024-02-28T03:57:18;98785.00;;;8.56;74.58
84051;BME280;74137;50.136;19.040;2024-02-28T03:59:46;98787.62;;;8.56;74.41
84051;BME280;74137;50.136;19.040;2024-02-28T04:02:15;98786.43;;;8.55;74.71
84051;BME280;74137;50.136;19.040;2024-02-28T04:04:43;98788.77;;;8.54;74.72
84051;BME280;74137;50.136;19.040;2024-02-28T04:07:11;98793.01;;;8.53;74.36
84051;BME280;74137;50.136;19.040;2024-02-28T04:09:42;98793.00;;;8.53;74.62
84051;BME280;74137;50.136;19.040;2024-02-28T04:12:11;98788.51;;;8.52;74.81
84051;BME280;74137;50.136;19.040;2024-02-28T04:14:39;98793.98;;;8.51;74.71
84051;BME280;74137;50.136;19.040;2024-02-28T04:17:09;98796.70;;;8.49;74.53
84051;BME280;74137;50.136;19.040;2024-02-28T04:19:37;98798.05;;;8.47;74.46
84051;BME280;74137;50.136;19.040;2024-02-28T04:22:07;98800.25;;;8.45;74.72
84051;BME280;74137;50.136;19.040;2024-02-28T04:24:36;98800.09;;;8.44;74.71
84051;BME280;74137;50.136;19.040;2024-02-28T04:27:04;98801.37;;;8.43;75.00
84051;BME280;74137;50.136;19.040;2024-02-28T04:29:33;98801.34;;;8.44;75.22
84051;BME280;74137;50.136;19.040;2024-02-28T04:32:01;98804.17;;;8.42;74.96
84051;BME280;74137;50.136;19.040;2024-02-28T04:34:30;98804.08;;;8.40;74.96
84051;BME280;74137;50.136;19.040;2024-02-28T04:36:58;98805.38;;;8.39;75.34
84051;BME280;74137;50.136;19.040;2024-02-28T04:39:27;98804.49;;;8.39;75.24
84051;BME280;74137;50.136;19.040;2024-02-28T04:41:55;98807.52;;;8.38;75.20
84051;BME280;74137;50.136;19.040;2024-02-28T04:44:23;98805.44;;;8.37;75.22
84051;BME280;74137;50.136;19.040;2024-02-28T04:46:52;98807.47;;;8.39;75.39
84051;BME280;74137;50.136;19.040;2024-02-28T04:49:20;98809.44;;;8.42;75.63
84051;BME280;74137;50.136;19.040;2024-02-28T04:51:48;98811.30;;;8.44;75.53
84051;BME280;74137;50.136;19.040;2024-02-28T04:54:17;98809.00;;;8.44;75.44
84051;BME280;74137;50.136;19.040;2024-02-28T04:56:46;98805.15;;;8.44;75.62
84051;BME280;74137;50.136;19.040;2024-02-28T04:59:15;98806.98;;;8.46;75.48
84051;BME280;74137;50.136;19.040;2024-02-28T05:01:44;98806.14;;;8.46;75.69
84051;BME280;74137;50.136;19.040;2024-02-28T05:04:14;98805.31;;;8.45;75.54
84051;BME280;74137;50.136;19.040;2024-02-28T05:06:43;98810.94;;;8.45;75.20
84051;BME280;74137;50.136;19.040;2024-02-28T05:09:13;98817.05;;;8.44;75.43
84051;BME280;74137;50.136;19.040;2024-02-28T05:11:49;98817.71;;;8.45;75.46
84051;BME280;74137;50.136;19.040;2024-02-28T05:14:20;98823.80;;;8.46;75.43
84051;BME280;74137;50.136;19.040;2024-02-28T05:16:49;98822.05;;;8.46;75.21
84051;BME280;74137;50.136;19.040;2024-02-28T05:19:18;98822.98;;;8.45;75.21
84051;BME280;74137;50.136;19.040;2024-02-28T05:21:47;98826.23;;;8.42;75.26
84051;BME280;74137;50.136;19.040;2024-02-28T05:24:17;98824.38;;;8.40;75.18
84051;BME280;74137;50.136;19.040;2024-02-28T05:26:46;98827.98;;;8.38;75.01
84051;BME280;74137;50.136;19.040;2024-02-28T05:32:21;98834.20;;;8.40;75.48
84051;BME280;74137;50.136;19.040;2024-02-28T05:34:49;98835.41;;;8.40;75.33
84051;BME280;74137;50.136;19.040;2024-02-28T05:37:21;98840.71;;;8.39;75.19
84051;BME280;74137;50.136;19.040;2024-02-28T05:39:50;98841.05;;;8.39;75.41
84051;BME280;74137;50.136;19.040;2024-02-28T05:42:27;98844.14;;;8.40;75.31
84051;BME280;74137;50.136;19.040;2024-02-28T05:44:57;98840.62;;;8.41;75.52
84051;BME280;74137;50.136;19.040;2024-02-28T05:47:26;98843.16;;;8.43;75.52
84051;BME280;74137;50.136;19.040;2024-02-28T05:50:01;98850.05;;;8.46;75.52
84051;BME280;74137;50.136;19.040;2024-02-28T05:52:42;98840.64;;;8.45;75.58
84051;BME280;74137;50.136;19.040;2024-02-28T05:55:13;98844.67;;;8.48;75.75
84051;BME280;74137;50.136;19.040;2024-02-28T05:57:42;98855.40;;;8.51;75.56
84051;BME280;74137;50.136;19.040;2024-02-28T06:00:10;98858.27;;;8.53;75.86
84051;BME280;74137;50.136;19.040;2024-02-28T06:02:42;98857.48;;;8.55;75.76
84051;BME280;74137;50.136;19.040;2024-02-28T06:05:12;98857.90;;;8.57;75.65
84051;BME280;74137;50.136;19.040;2024-02-28T06:07:41;98860.89;;;8.61;75.43
84051;BME280;74137;50.136;19.040;2024-02-28T06:10:09;98864.52;;;8.65;75.49
84051;BME280;74137;50.136;19.040;2024-02-28T06:12:39;98869.42;;;8.69;75.44
84051;BME280;74137;50.136;19.040;2024-02-28T06:15:08;98871.89;;;8.72;75.49
84051;BME280;74137;50.136;19.040;2024-02-28T06:17:36;98873.31;;;8.75;75.65
84051;BME280;74137;50.136;19.040;2024-02-28T06:20:05;98875.93;;;8.79;75.75
84051;BME280;74137;50.136;19.040;2024-02-28T06:22:34;98877.64;;;8.83;75.84
84051;BME280;74137;50.136;19.040;2024-02-28T06:25:02;98877.60;;;8.87;75.78
84051;BME280;74137;50.136;19.040;2024-02-28T06:27:35;98878.52;;;8.90;75.71
84051;BME280;74137;50.136;19.040;2024-02-28T06:30:04;98877.34;;;8.93;75.49
84051;BME280;74137;50.136;19.040;2024-02-28T06:32:33;98874.13;;;8.94;75.62
84051;BME280;74137;50.136;19.040;2024-02-28T06:35:04;98876.11;;;8.96;75.55
84051;BME280;74137;50.136;19.040;2024-02-28T06:37:33;98878.54;;;9.01;75.77
84051;BME280;74137;50.136;19.040;2024-02-28T06:40:03;98884.06;;;9.02;75.64
84051;BME280;74137;50.136;19.040;2024-02-28T06:42:36;98890.73;;;9.05;75.77
84051;BME280;74137;50.136;19.040;2024-02-28T06:45:05;98891.30;;;9.08;75.68
84051;BME280;74137;50.136;19.040;2024-02-28T06:47:34;98891.91;;;9.10;75.63
84051;BME280;74137;50.136;19.040;2024-02-28T06:50:05;98889.58;;;9.11;75.49
84051;BME280;74137;50.136;19.040;2024-02-28T06:52:36;98892.55;;;9.14;75.60
84051;BME280;74137;50.136;19.040;2024-02-28T06:55:04;98893.30;;;9.17;75.75
84051;BME280;74137;50.136;19.040;2024-02-28T06:57:41;98896.94;;;9.22;75.64
84051;BME280;74137;50.136;19.040;2024-02-28T07:00:10;98897.48;;;9.24;75.60
84051;BME280;74137;50.136;19.040;2024-02-28T07:02:48;98898.80;;;9.26;75.45
84051;BME280;74137;50.136;19.040;2024-02-28T07:05:24;98901.80;;;9.29;75.41
84051;BME280;74137;50.136;19.040;2024-02-28T07:07:54;98900.13;;;9.31;75.69
84051;BME280;74137;50.136;19.040;2024-02-28T07:10:22;98899.09;;;9.34;75.84
84051;BME280;74137;50.136;19.040;2024-02-28T07:12:51;98902.62;;;9.38;75.89
84051;BME280;74137;50.136;19.040;2024-02-28T07:15:20;98906.07;;;9.39;75.92
84051;BME280;74137;50.136;19.040;2024-02-28T07:17:49;98911.24;;;9.40;75.94
84051;BME280;74137;50.136;19.040;2024-02-28T07:20:18;98910.27;;;9.39;76.21
84051;BME280;74137;50.136;19.040;2024-02-28T07:22:51;98915.77;;;9.40;76.20
84051;BME280;74137;50.136;19.040;2024-02-28T07:25:20;98916.46;;;9.41;76.33
84051;BME280;74137;50.136;19.040;2024-02-28T07:27:50;98915.03;;;9.42;76.19
84051;BME280;74137;50.136;19.040;2024-02-28T07:30:19;98914.89;;;9.44;76.22
84051;BME280;74137;50.136;19.040;2024-02-28T07:32:49;98916.33;;;9.47;76.19
84051;BME280;74137;50.136;19.040;2024-02-28T07:35:21;98913.85;;;9.50;76.30
84051;BME280;74137;50.136;19.040;2024-02-28T07:37:55;98919.64;;;9.54;76.34
84051;BME280;74137;50.136;19.040;2024-02-28T07:40:24;98919.45;;;9.58;76.26
84051;BME280;74137;50.136;19.040;2024-02-28T07:42:53;98921.86;;;9.62;76.44
84051;BME280;74137;50.136;19.040;2024-02-28T07:45:21;98920.79;;;9.66;76.32
84051;BME280;74137;50.136;19.040;2024-02-28T07:47:49;98923.61;;;9.69;76.45
84051;BME280;74137;50.136;19.040;2024-02-28T07:50:18;98925.90;;;9.72;76.37
84051;BME280;74137;50.136;19.040;2024-02-28T07:52:46;98925.17;;;9.72;76.40
84051;BME280;74137;50.136;19.040;2024-02-28T07:55:15;98928.68;;;9.76;76.46
84051;BME280;74137;50.136;19.040;2024-02-28T07:57:43;98930.48;;;9.79;76.55
84051;BME280;74137;50.136;19.040;2024-02-28T08:00:13;98931.23;;;9.81;76.37
84051;BME280;74137;50.136;19.040;2024-02-28T08:02:43;98929.58;;;9.82;76.39
84051;BME280;74137;50.136;19.040;2024-02-28T08:05:13;98932.67;;;9.84;76.58
84051;BME280;74137;50.136;19.040;2024-02-28T08:07:42;98933.75;;;9.83;76.39
84051;BME280;74137;50.136;19.040;2024-02-28T08:10:11;98932.16;;;9.83;76.46
84051;BME280;74137;50.136;19.040;2024-02-28T08:12:39;98931.95;;;9.84;76.52
84051;BME280;74137;50.136;19.040;2024-02-28T08:15:08;98937.38;;;9.84;76.50
84051;BME280;74137;50.136;19.040;2024-02-28T08:17:36;98938.44;;;9.84;76.50
84051;BME280;74137;50.136;19.040;2024-02-28T08:20:05;98936.65;;;9.85;76.64
84051;BME280;74137;50.136;19.040;2024-02-28T08:22:34;98934.02;;;9.87;76.65
84051;BME280;74137;50.136;19.040;2024-02-28T08:25:02;98939.79;;;9.91;76.68
84051;BME280;74137;50.136;19.040;2024-02-28T08:27:33;98938.52;;;9.96;76.77
84051;BME280;74137;50.136;19.040;2024-02-28T08:30:04;98940.54;;;10.01;76.71
84051;BME280;74137;50.136;19.040;2024-02-28T08:32:34;98939.19;;;10.06;76.63
84051;BME280;74137;50.136;19.040;2024-02-28T08:35:02;98937.88;;;10.11;76.58
84051;BME280;74137;50.136;19.040;2024-02-28T08:37:31;98938.69;;;10.16;76.57
84051;BME280;74137;50.136;19.040;2024-02-28T08:39:59;98940.93;;;10.20;76.23
84051;BME280;74137;50.136;19.040;2024-02-28T08:42:28;98938.55;;;10.25;76.24
84051;BME280;74137;50.136;19.040;2024-02-28T08:44:57;98937.36;;;10.31;76.52
84051;BME280;74137;50.136;19.040;2024-02-28T08:47:28;98937.38;;;10.38;76.41
84051;BME280;74137;50.136;19.040;2024-02-28T08:49:56;98937.79;;;10.43;76.34
84051;BME280;74137;50.136;19.040;2024-02-28T08:52:25;98940.50;;;10.48;76.30
84051;BME280;74137;50.136;19.040;2024-02-28T08:54:55;98943.02;;;10.54;76.03
84051;BME280;74137;50.136;19.040;2024-02-28T08:57:24;98949.88;;;10.59;76.09
84051;BME280;74137;50.136;19.040;2024-02-28T08:59:52;98950.20;;;10.67;76.45
84051;BME280;74137;50.136;19.040;2024-02-28T09:02:21;98952.47;;;10.73;76.12
84051;BME280;74137;50.136;19.040;2024-02-28T09:04:50;98956.84;;;10.80;76.32
84051;BME280;74137;50.136;19.040;2024-02-28T09:07:20;98955.77;;;10.83;75.92
84051;BME280;74137;50.136;19.040;2024-02-28T09:09:48;98953.06;;;10.88;75.67
84051;BME280;74137;50.136;19.040;2024-02-28T09:12:17;98957.52;;;10.93;75.79
84051;BME280;74137;50.136;19.040;2024-02-28T09:14:46;98951.90;;;10.99;75.46
84051;BME280;74137;50.136;19.040;2024-02-28T09:21:35;98958.89;;;11.09;75.07
84051;BME280;74137;50.136;19.040;2024-02-28T13:40:43;99048.14;;;12.65;65.17
84051;BME280;74137;50.136;19.040;2024-02-28T13:43:13;99048.52;;;12.36;65.77
84051;BME280;74137;50.136;19.040;2024-02-28T13:45:50;99054.25;;;12.14;65.92
84051;BME280;74137;50.136;19.040;2024-02-28T13:48:28;99054.72;;;11.94;66.40
84051;BME280;74137;50.136;19.040;2024-02-28T13:50:57;99054.13;;;11.80;66.49
84051;BME280;74137;50.136;19.040;2024-02-28T13:53:38;99051.23;;;11.63;67.04
84051;BME280;74137;50.136;19.040;2024-02-28T13:56:07;99051.17;;;11.52;67.59
84051;BME280;74137;50.136;19.040;2024-02-28T13:58:35;99058.59;;;11.45;67.68
84051;BME280;74137;50.136;19.040;2024-02-28T14:01:13;99060.69;;;11.36;67.66
84051;BME280;74137;50.136;19.040;2024-02-28T14:03:41;99063.73;;;11.28;67.74
84051;BME280;74137;50.136;19.040;2024-02-28T14:06:11;99063.09;;;11.21;67.95
84051;BME280;74137;50.136;19.040;2024-02-28T14:08:41;99066.70;;;11.16;68.40
84051;BME280;74137;50.136;19.040;2024-02-28T14:11:11;99068.92;;;11.11;68.46
84051;BME280;74137;50.136;19.040;2024-02-28T14:13:39;99071.50;;;11.02;68.46
84051;BME280;74137;50.136;19.040;2024-02-28T14:16:08;99074.38;;;10.95;68.65
84051;BME280;74137;50.136;19.040;2024-02-28T14:18:37;99074.93;;;10.88;69.09
84051;BME280;74137;50.136;19.040;2024-02-28T14:21:06;99083.03;;;10.81;69.19
84051;BME280;74137;50.136;19.040;2024-02-28T14:23:38;99090.27;;;10.74;69.23
84051;BME280;74137;50.136;19.040;2024-02-28T14:26:07;99089.52;;;10.68;69.29
84051;BME280;74137;50.136;19.040;2024-02-28T14:28:36;99091.91;;;10.62;69.43
84051;BME280;74137;50.136;19.040;2024-02-28T14:31:05;99091.55;;;10.56;69.68
84051;BME280;74137;50.136;19.040;2024-02-28T14:33:33;99093.36;;;10.52;69.79
84051;BME280;74137;50.136;19.040;2024-02-28T14:36:02;99099.17;;;10.48;69.65
84051;BME280;74137;50.136;19.040;2024-02-28T14:38:33;99104.56;;;10.42;70.04
84051;BME280;74137;50.136;19.040;2024-02-28T14:41:02;99115.42;;;10.39;70.34
84051;BME280;74137;50.136;19.040;2024-02-28T14:43:31;99119.16;;;10.35;70.04
84051;BME280;74137;50.136;19.040;2024-02-28T14:45:59;99119.58;;;10.30;69.96
84051;BME280;74137;50.136;19.040;2024-02-28T14:48:28;99118.38;;;10.25;70.40
84051;BME280;74137;50.136;19.040;2024-02-28T14:50:57;99115.00;;;10.23;70.05
84051;BME280;74137;50.136;19.040;2024-02-28T14:53:28;99114.88;;;10.21;70.39
84051;BME280;74137;50.136;19.040;2024-02-28T14:55:56;99120.45;;;10.19;70.52
84051;BME280;74137;50.136;19.040;2024-02-28T14:58:25;99119.02;;;10.16;70.23
84051;BME280;74137;50.136;19.040;2024-02-28T15:00:53;99125.08;;;10.15;70.66
84051;BME280;74137;50.136;19.040;2024-02-28T15:03:27;99125.27;;;10.14;70.59
84051;BME280;74137;50.136;19.040;2024-02-28T15:05:56;99124.17;;;10.11;70.44
84051;BME280;74137;50.136;19.040;2024-02-28T15:08:24;99126.85;;;10.07;70.58
84051;BME280;74137;50.136;19.040;2024-02-28T15:10:53;99125.39;;;10.04;70.78
84051;BME280;74137;50.136;19.040;2024-02-28T15:13:21;99125.41;;;10.04;70.71
84051;BME280;74137;50.136;19.040;2024-02-28T15:15:51;99125.62;;;10.04;70.85
84051;BME280;74137;50.136;19.040;2024-02-28T15:18:20;99126.27;;;10.04;70.91
84051;BME280;74137;50.136;19.040;2024-02-28T15:20:51;99127.00;;;10.04;70.89
84051;BME280;74137;50.136;19.040;2024-02-28T15:23:25;99133.35;;;10.03;70.83
84051;BME280;74137;50.136;19.040;2024-02-28T15:26:01;99135.91;;;10.01;70.75
84051;BME280;74137;50.136;19.040;2024-02-28T15:28:31;99140.30;;;9.98;70.71
84051;BME280;74137;50.136;19.040;2024-02-28T15:31:01;99144.13;;;9.95;70.96
84051;BME280;74137;50.136;19.040;2024-02-28T15:33:30;99142.48;;;9.92;71.03
84051;BME280;74137;50.136;19.040;2024-02-28T15:36:00;99144.09;;;9.92;71.06
84051;BME280;74137;50.136;19.040;2024-02-28T15:38:31;99142.64;;;9.89;71.13
84051;BME280;74137;50.136;19.040;2024-02-28T15:40:59;99141.63;;;9.88;71.15
84051;BME280;74137;50.136;19.040;2024-02-28T15:43:27;99142.05;;;9.87;70.90
84051;BME280;74137;50.136;19.040;2024-02-28T15:45:56;99142.16;;;9.84;70.93
84051;BME280;74137;50.136;19.040;2024-02-28T15:48:24;99143.08;;;9.84;71.23
84051;BME280;74137;50.136;19.040;2024-02-28T15:50:53;99142.76;;;9.83;71.33
84051;BME280;74137;50.136;19.040;2024-02-28T15:53:25;99147.64;;;9.83;71.23
84051;BME280;74137;50.136;19.040;2024-02-28T15:55:53;99146.80;;;9.83;71.28
84051;BME280;74137;50.136;19.040;2024-02-28T15:58:22;99154.20;;;9.82;71.40
84051;BME280;74137;50.136;19.040;2024-02-28T16:00:54;99157.72;;;9.79;71.35
84051;BME280;74137;50.136;19.040;2024-02-28T16:03:23;99164.21;;;9.74;71.38
84051;BME280;74137;50.136;19.040;2024-02-28T16:05:51;99168.39;;;9.71;71.37
84051;BME280;74137;50.136;19.040;2024-02-28T17:28:24;99252.90;;;9.09;73.03
84051;BME280;74137;50.136;19.040;2024-02-28T18:25:18;99267.10;;;9.71;71.80
84051;BME280;74137;50.136;19.040;2024-02-28T18:27:46;99264.60;;;9.65;71.87
84051;BME280;74137;50.136;19.040;2024-02-28T18:30:14;99266.45;;;9.51;71.98
84051;BME280;74137;50.136;19.040;2024-02-28T18:32:43;99266.77;;;9.36;72.19
84051;BME280;74137;50.136;19.040;2024-02-28T18:35:13;99268.09;;;9.22;72.38
84051;BME280;74137;50.136;19.040;2024-02-28T18:37:46;99269.03;;;9.09;72.51
84051;BME280;74137;50.136;19.040;2024-02-28T18:40:15;99269.90;;;8.97;72.93
84051;BME280;74137;50.136;19.040;2024-02-28T18:42:44;99274.27;;;8.89;73.17
84051;BME280;74137;50.136;19.040;2024-02-28T18:45:12;99271.44;;;8.81;73.34
84051;BME280;74137;50.136;19.040;2024-02-28T18:47:41;99280.16;;;8.74;73.41
84051;BME280;74137;50.136;19.040;2024-02-28T18:50:09;99282.17;;;8.68;73.79
84051;BME280;74137;50.136;19.040;2024-02-28T18:52:40;99283.54;;;8.65;74.01
84051;BME280;74137;50.136;19.040;2024-02-28T18:55:08;99282.29;;;8.60;74.02
84051;BME280;74137;50.136;19.040;2024-02-28T18:57:37;99282.27;;;8.57;74.19
84051;BME280;74137;50.136;19.040;2024-02-28T19:00:06;99283.38;;;8.51;74.39
84051;BME280;74137;50.136;19.040;2024-02-28T19:02:34;99289.67;;;8.51;74.29
84051;BME280;74137;50.136;19.040;2024-02-28T19:05:03;99292.91;;;8.49;74.45
84051;BME280;74137;50.136;19.040;2024-02-28T19:07:31;99291.45;;;8.47;74.75
84051;BME280;74137;50.136;19.040;2024-02-28T19:10:02;99295.39;;;8.44;75.02
84051;BME280;74137;50.136;19.040;2024-02-28T19:12:31;99292.82;;;8.43;74.68
84051;BME280;74137;50.136;19.040;2024-02-28T19:15:02;99292.88;;;8.40;74.72
84051;BME280;74137;50.136;19.040;2024-02-28T19:17:33;99296.77;;;8.39;75.17
84051;BME280;74137;50.136;19.040;2024-02-28T19:20:49;99295.27;;;8.37;74.88
84051;BME280;74137;50.136;19.040;2024-02-28T19:23:33;99293.70;;;8.38;75.13
84051;BME280;74137;50.136;19.040;2024-02-28T19:26:04;99296.30;;;8.38;75.06
84051;BME280;74137;50.136;19.040;2024-02-28T19:28:35;99297.28;;;8.36;75.04
84051;BME280;74137;50.136;19.040;2024-02-28T19:31:08;99296.64;;;8.34;74.93
84051;BME280;74137;50.136;19.040;2024-02-28T19:33:38;99293.55;;;8.32;75.12
84051;BME280;74137;50.136;19.040;2024-02-28T19:36:09;99294.02;;;8.34;75.22
84051;BME280;74137;50.136;19.040;2024-02-28T19:38:40;99295.55;;;8.35;75.04
84051;BME280;74137;50.136;19.040;2024-02-28T19:41:11;99299.36;;;8.36;75.23
84051;BME280;74137;50.136;19.040;2024-02-28T19:43:39;99297.81;;;8.35;75.46
84051;BME280;74137;50.136;19.040;2024-02-28T19:46:11;99299.70;;;8.36;75.29
84051;BME280;74137;50.136;19.040;2024-02-28T19:48:46;99297.95;;;8.36;75.15
84051;BME280;74137;50.136;19.040;2024-02-28T19:51:23;99298.63;;;8.37;75.32
84051;BME280;74137;50.136;19.040;2024-02-28T19:54:25;99296.77;;;8.35;75.42
84051;BME280;74137;50.136;19.040;2024-02-28T19:57:04;99304.24;;;8.36;75.43
84051;BME280;74137;50.136;19.040;2024-02-28T19:59:39;99299.77;;;8.35;75.33